sensor_id;sensor_type;location;lat;lon;timestamp;P1;durP1;ratioP1;P2;durP2;ratioP2
47455;SDS011;33202;48.512;-2.780;2023-01-25T00:02:18;54.42;;;29.83;;
47455;SDS011;33202;48.512;-2.780;2023-01-25T00:04:44;57.00;;;31.02;;
47455;SDS011;33202;48.512;-2.780;2023-01-25T00:07:10;58.50;;;30.48;;
47455;SDS011;33202;48.512;-2.780;2023-01-25T00:09:36;57.80;;;30.85;;
47455;SDS011;33202;48.512;-2.780;2023-01-25T00:12:02;57.85;;;31.60;;
47455;SDS011;33202;48.512;-2.780;2023-01-25T00:14:28;60.33;;;30.52;;
47455;SDS011;33202;48.512;-2.780;2023-01-25T00:16:54;57.60;;;30.52;;
47455;SDS011;33202;48.512;-2.780;2023-01-25T00:19:20;58.70;;;31.15;;
47455;SDS011;33202;48.512;-2.780;2023-01-25T00:21:46;58.65;;;30.63;;
47455;SDS011;33202;48.512;-2.780;2023-01-25T00:24:12;59.00;;;30.75;;
47455;SDS011;33202;48.512;-2.780;2023-01-25T00:26:39;57.13;;;31.15;;
47455;SDS011;33202;48.512;-2.780;2023-01-25T00:29:05;56.10;;;29.48;;
47455;SDS011;33202;48.512;-2.780;2023-01-25T00:34:28;60.75;;;29.48;;
47455;SDS011;33202;48.512;-2.780;2023-01-25T00:39:23;61.20;;;31.50;;
47455;SDS011;33202;48.512;-2.780;2023-01-25T00:41:49;64.97;;;33.10;;
47455;SDS011;33202;48.512;-2.780;2023-01-25T00:44:15;60.75;;;30.40;;
47455;SDS011;33202;48.512;-2.780;2023-01-25T00:46:41;56.65;;;30.27;;
47455;SDS011;33202;48.512;-2.780;2023-01-25T00:49:20;59.45;;;31.63;;
47455;SDS011;33202;48.512;-2.780;2023-01-25T00:51:47;62.08;;;31.45;;
47455;SDS011;33202;48.512;-2.780;2023-01-25T00:54:13;60.40;;;31.17;;
47455;SDS011;33202;48.512;-2.780;2023-01-25T00:56:39;57.72;;;30.77;;
47455;SDS011;33202;48.512;-2.780;2023-01-25T00:59:05;60.05;;;31.90;;
47455;SDS011;33202;48.512;-2.780;2023-01-25T01:01:31;56.75;;;29.23;;
47455;SDS011;33202;48.512;-2.780;2023-01-25T01:03:57;57.10;;;29.98;;
47455;SDS011;33202;48.512;-2.780;2023-01-25T01:06:23;58.88;;;29.98;;
47455;SDS011;33202;48.512;-2.780;2023-01-25T01:08:49;59.50;;;31.08;;
47455;SDS011;33202;48.512;-2.780;2023-01-25T01:11:15;56.88;;;29.05;;
47455;SDS011;33202;48.512;-2.780;2023-01-25T01:13:41;62.85;;;32.58;;
47455;SDS011;33202;48.512;-2.780;2023-01-25T01:16:07;59.95;;;29.92;;
47455;SDS011;33202;48.512;-2.780;2023-01-25T01:18:36;60.00;;;30.17;;
47455;SDS011;33202;48.512;-2.780;2023-01-25T01:21:03;60.78;;;30.95;;
47455;SDS011;33202;48.512;-2.780;2023-01-25T01:23:29;62.55;;;30.98;;
47455;SDS011;33202;48.512;-2.780;2023-01-25T01:25:58;57.10;;;29.52;;
47455;SDS011;33202;48.512;-2.780;2023-01-25T01:28:24;58.97;;;30.05;;
47455;SDS011;33202;48.512;-2.780;2023-01-25T01:30:50;61.70;;;31.67;;
47455;SDS011;33202;48.512;-2.780;2023-01-25T01:33:16;65.13;;;32.38;;
47455;SDS011;33202;48.512;-2.780;2023-01-25T01:35:42;61.35;;;29.88;;
47455;SDS011;33202;48.512;-2.780;2023-01-25T01:38:10;61.60;;;31.73;;
47455;SDS011;33202;48.512;-2.780;2023-01-25T01:40:36;61.83;;;32.08;;
47455;SDS011;33202;48.512;-2.780;2023-01-25T01:43:06;61.90;;;32.83;;
47455;SDS011;33202;48.512;-2.780;2023-01-25T01:50:58;57.83;;;30.23;;
47455;SDS011;33202;48.512;-2.780;2023-01-25T01:53:25;59.67;;;31.02;;
47455;SDS011;33202;48.512;-2.780;2023-01-25T01:55:51;58.45;;;29.10;;
47455;SDS011;33202;48.512;-2.780;2023-01-25T01:58:18;60.78;;;29.42;;
47455;SDS011;33202;48.512;-2.780;2023-01-25T02:00:44;60.97;;;29.67;;
47455;SDS011;33202;48.512;-2.780;2023-01-25T02:03:10;62.67;;;31.48;;
47455;SDS011;33202;48.512;-2.780;2023-01-25T02:05:46;58.40;;;30.27;;
47455;SDS011;33202;48.512;-2.780;2023-01-25T02:08:15;59.95;;;29.17;;
47455;SDS011;33202;48.512;-2.780;2023-01-25T02:10:42;58.45;;;29.42;;
47455;SDS011;33202;48.512;-2.780;2023-01-25T02:13:09;59.00;;;29.67;;
47455;SDS011;33202;48.512;-2.780;2023-01-25T02:15:42;58.00;;;28.98;;
47455;SDS011;33202;48.512;-2.780;2023-01-25T02:18:09;60.70;;;30.50;;
47455;SDS011;33202;48.512;-2.780;2023-01-25T02:20:36;59.23;;;29.40;;
47455;SDS011;33202;48.512;-2.780;2023-01-25T02:25:29;56.47;;;28.48;;
47455;SDS011;33202;48.512;-2.780;2023-01-25T02:27:58;58.25;;;30.48;;
47455;SDS011;33202;48.512;-2.780;2023-01-25T02:30:25;59.83;;;30.77;;
47455;SDS011;33202;48.512;-2.780;2023-01-25T02:32:51;59.10;;;29.52;;
47455;SDS011;33202;48.512;-2.780;2023-01-25T02:35:18;55.00;;;28.95;;
47455;SDS011;33202;48.512;-2.780;2023-01-25T02:37:45;61.03;;;29.60;;
47455;SDS011;33202;48.512;-2.780;2023-01-25T02:40:11;59.42;;;30.60;;
47455;SDS011;33202;48.512;-2.780;2023-01-25T02:42:37;57.17;;;28.70;;
47455;SDS011;33202;48.512;-2.780;2023-01-25T02:45:06;54.35;;;28.45;;
47455;SDS011;33202;48.512;-2.780;2023-01-25T02:47:34;57.03;;;29.13;;
47455;SDS011;33202;48.512;-2.780;2023-01-25T02:50:01;59.15;;;29.77;;
47455;SDS011;33202;48.512;-2.780;2023-01-25T02:52:27;62.70;;;30.45;;
47455;SDS011;33202;48.512;-2.780;2023-01-25T02:54:53;58.45;;;30.23;;
47455;SDS011;33202;48.512;-2.780;2023-01-25T02:57:19;60.08;;;30.98;;
47455;SDS011;33202;48.512;-2.780;2023-01-25T02:59:45;60.42;;;29.20;;
47455;SDS011;33202;48.512;-2.780;2023-01-25T03:02:11;64.22;;;30.42;;
47455;SDS011;33202;48.512;-2.780;2023-01-25T03:04:37;62.17;;;30.33;;
47455;SDS011;33202;48.512;-2.780;2023-01-25T03:07:03;58.90;;;29.25;;
47455;SDS011;33202;48.512;-2.780;2023-01-25T03:09:29;61.65;;;30.02;;
47455;SDS011;33202;48.512;-2.780;2023-01-25T03:11:55;61.20;;;30.88;;
47455;SDS011;33202;48.512;-2.780;2023-01-25T03:14:21;60.50;;;29.65;;
47455;SDS011;33202;48.512;-2.780;2023-01-25T03:16:47;62.08;;;29.83;;
47455;SDS011;33202;48.512;-2.780;2023-01-25T03:19:13;58.47;;;28.33;;
47455;SDS011;33202;48.512;-2.780;2023-01-25T03:21:39;61.40;;;29.45;;
47455;SDS011;33202;48.512;-2.780;2023-01-25T03:24:06;60.67;;;30.70;;
47455;SDS011;33202;48.512;-2.780;2023-01-25T03:26:32;57.92;;;29.17;;
47455;SDS011;33202;48.512;-2.780;2023-01-25T03:29:18;57.78;;;29.05;;
47455;SDS011;33202;48.512;-2.780;2023-01-25T03:31:44;61.97;;;30.55;;
47455;SDS011;33202;48.512;-2.780;2023-01-25T03:34:10;57.70;;;27.63;;
47455;SDS011;33202;48.512;-2.780;2023-01-25T03:36:36;59.80;;;29.38;;
47455;SDS011;33202;48.512;-2.780;2023-01-25T03:39:02;61.17;;;29.85;;
47455;SDS011;33202;48.512;-2.780;2023-01-25T03:41:28;55.03;;;27.80;;
47455;SDS011;33202;48.512;-2.780;2023-01-25T03:43:54;59.40;;;28.17;;
47455;SDS011;33202;48.512;-2.780;2023-01-25T03:46:19;62.30;;;29.45;;
47455;SDS011;33202;48.512;-2.780;2023-01-25T03:48:45;60.35;;;29.35;;
47455;SDS011;33202;48.512;-2.780;2023-01-25T03:51:11;60.08;;;28.80;;
47455;SDS011;33202;48.512;-2.780;2023-01-25T03:53:37;60.30;;;29.10;;
47455;SDS011;33202;48.512;-2.780;2023-01-25T03:56:04;59.92;;;28.00;;
47455;SDS011;33202;48.512;-2.780;2023-01-25T03:58:32;57.40;;;28.48;;
47455;SDS011;33202;48.512;-2.780;2023-01-25T04:00:59;52.10;;;25.25;;
47455;SDS011;33202;48.512;-2.780;2023-01-25T04:03:25;62.23;;;29.10;;
47455;SDS011;33202;48.512;-2.780;2023-01-25T04:05:52;59.17;;;28.60;;
47455;SDS011;33202;48.512;-2.780;2023-01-25T04:08:18;54.05;;;27.33;;
47455;SDS011;33202;48.512;-2.780;2023-01-25T04:10:48;56.75;;;27.65;;
47455;SDS011;33202;48.512;-2.780;2023-01-25T04:13:16;56.17;;;28.17;;
47455;SDS011;33202;48.512;-2.780;2023-01-25T04:15:42;52.72;;;28.38;;
47455;SDS011;33202;48.512;-2.780;2023-01-25T04:18:08;57.58;;;28.75;;
47455;SDS011;33202;48.512;-2.780;2023-01-25T04:20:34;59.22;;;27.77;;
47455;SDS011;33202;48.512;-2.780;2023-01-25T04:23:00;56.95;;;27.98;;
47455;SDS011;33202;48.512;-2.780;2023-01-25T04:25:26;55.45;;;26.98;;
47455;SDS011;33202;48.512;-2.780;2023-01-25T04:27:52;55.33;;;28.38;;
47455;SDS011;33202;48.512;-2.780;2023-01-25T04:30:18;55.40;;;27.83;;
47455;SDS011;33202;48.512;-2.780;2023-01-25T04:32:45;55.00;;;27.88;;
47455;SDS011;33202;48.512;-2.780;2023-01-25T04:35:11;56.47;;;27.27;;
47455;SDS011;33202;48.512;-2.780;2023-01-25T04:37:37;53.28;;;26.80;;
47455;SDS011;33202;48.512;-2.780;2023-01-25T04:40:03;59.83;;;28.10;;
47455;SDS011;33202;48.512;-2.780;2023-01-25T04:42:29;58.80;;;28.63;;
47455;SDS011;33202;48.512;-2.780;2023-01-25T04:44:55;57.75;;;27.80;;
47455;SDS011;33202;48.512;-2.780;2023-01-25T04:47:21;56.83;;;27.85;;
47455;SDS011;33202;48.512;-2.780;2023-01-25T04:49:47;55.72;;;28.42;;
47455;SDS011;33202;48.512;-2.780;2023-01-25T04:52:13;59.03;;;28.15;;
47455;SDS011;33202;48.512;-2.780;2023-01-25T04:54:39;57.78;;;27.70;;
47455;SDS011;33202;48.512;-2.780;2023-01-25T04:57:05;50.20;;;25.63;;
47455;SDS011;33202;48.512;-2.780;2023-01-25T04:59:31;54.92;;;28.35;;
47455;SDS011;33202;48.512;-2.780;2023-01-25T05:01:57;57.28;;;28.05;;
47455;SDS011;33202;48.512;-2.780;2023-01-25T05:04:23;54.47;;;26.65;;
47455;SDS011;33202;48.512;-2.780;2023-01-25T05:06:49;54.67;;;28.08;;
47455;SDS011;33202;48.512;-2.780;2023-01-25T05:09:15;55.65;;;28.00;;
47455;SDS011;33202;48.512;-2.780;2023-01-25T05:11:41;56.38;;;28.08;;
47455;SDS011;33202;48.512;-2.780;2023-01-25T05:14:07;57.83;;;27.48;;
47455;SDS011;33202;48.512;-2.780;2023-01-25T05:16:33;55.42;;;27.00;;
47455;SDS011;33202;48.512;-2.780;2023-01-25T05:19:00;59.33;;;26.63;;
47455;SDS011;33202;48.512;-2.780;2023-01-25T05:21:26;55.53;;;26.85;;
47455;SDS011;33202;48.512;-2.780;2023-01-25T05:24:10;53.70;;;26.25;;
47455;SDS011;33202;48.512;-2.780;2023-01-25T05:26:36;57.83;;;27.00;;
47455;SDS011;33202;48.512;-2.780;2023-01-25T05:29:21;56.97;;;27.67;;
47455;SDS011;33202;48.512;-2.780;2023-01-25T05:31:47;56.05;;;27.15;;
47455;SDS011;33202;48.512;-2.780;2023-01-25T05:34:13;57.03;;;27.98;;
47455;SDS011;33202;48.512;-2.780;2023-01-25T05:36:39;55.35;;;26.50;;
47455;SDS011;33202;48.512;-2.780;2023-01-25T05:39:05;58.33;;;27.60;;
47455;SDS011;33202;48.512;-2.780;2023-01-25T05:41:32;57.97;;;28.40;;
47455;SDS011;33202;48.512;-2.780;2023-01-25T05:43:58;55.53;;;27.00;;
47455;SDS011;33202;48.512;-2.780;2023-01-25T05:46:27;52.60;;;27.52;;
47455;SDS011;33202;48.512;-2.780;2023-01-25T05:48:53;57.83;;;28.98;;
47455;SDS011;33202;48.512;-2.780;2023-01-25T05:51:19;56.90;;;28.55;;
47455;SDS011;33202;48.512;-2.780;2023-01-25T05:53:46;58.00;;;26.83;;
47455;SDS011;33202;48.512;-2.780;2023-01-25T05:56:12;59.53;;;28.20;;
47455;SDS011;33202;48.512;-2.780;2023-01-25T05:58:38;55.40;;;27.35;;
47455;SDS011;33202;48.512;-2.780;2023-01-25T06:01:04;54.45;;;26.25;;
47455;SDS011;33202;48.512;-2.780;2023-01-25T06:03:30;55.45;;;28.38;;
47455;SDS011;33202;48.512;-2.780;2023-01-25T06:05:57;56.80;;;28.23;;
47455;SDS011;33202;48.512;-2.780;2023-01-25T06:08:25;56.55;;;27.95;;
47455;SDS011;33202;48.512;-2.780;2023-01-25T06:10:51;57.10;;;27.38;;
47455;SDS011;33202;48.512;-2.780;2023-01-25T06:13:17;58.03;;;29.27;;
47455;SDS011;33202;48.512;-2.780;2023-01-25T06:15:53;55.97;;;27.38;;
47455;SDS011;33202;48.512;-2.780;2023-01-25T06:18:19;55.47;;;26.98;;
47455;SDS011;33202;48.512;-2.780;2023-01-25T06:20:45;55.47;;;27.13;;
47455;SDS011;33202;48.512;-2.780;2023-01-25T06:23:11;56.92;;;27.60;;
47455;SDS011;33202;48.512;-2.780;2023-01-25T06:25:37;54.85;;;27.25;;
47455;SDS011;33202;48.512;-2.780;2023-01-25T06:28:04;58.70;;;27.77;;
47455;SDS011;33202;48.512;-2.780;2023-01-25T06:30:30;65.88;;;33.65;;
47455;SDS011;33202;48.512;-2.780;2023-01-25T06:32:59;79.40;;;41.25;;
47455;SDS011;33202;48.512;-2.780;2023-01-25T06:35:26;89.68;;;45.13;;
47455;SDS011;33202;48.512;-2.780;2023-01-25T06:37:55;83.50;;;41.00;;
47455;SDS011;33202;48.512;-2.780;2023-01-25T06:40:21;76.25;;;37.05;;
47455;SDS011;33202;48.512;-2.780;2023-01-25T06:42:47;65.18;;;33.65;;
47455;SDS011;33202;48.512;-2.780;2023-01-25T06:45:14;73.00;;;34.28;;
47455;SDS011;33202;48.512;-2.780;2023-01-25T06:47:40;78.97;;;36.63;;
47455;SDS011;33202;48.512;-2.780;2023-01-25T06:50:06;70.68;;;33.60;;
47455;SDS011;33202;48.512;-2.780;2023-01-25T06:52:32;86.65;;;41.53;;
47455;SDS011;33202;48.512;-2.780;2023-01-25T06:55:02;73.85;;;35.63;;
47455;SDS011;33202;48.512;-2.780;2023-01-25T06:57:28;60.90;;;30.63;;
47455;SDS011;33202;48.512;-2.780;2023-01-25T06:59:54;69.03;;;32.83;;
47455;SDS011;33202;48.512;-2.780;2023-01-25T07:02:20;68.55;;;33.75;;
47455;SDS011;33202;48.512;-2.780;2023-01-25T07:04:46;67.70;;;32.80;;
47455;SDS011;33202;48.512;-2.780;2023-01-25T07:07:12;68.95;;;31.95;;
47455;SDS011;33202;48.512;-2.780;2023-01-25T07:09:38;60.78;;;30.98;;
47455;SDS011;33202;48.512;-2.780;2023-01-25T07:12:04;60.20;;;29.88;;
47455;SDS011;33202;48.512;-2.780;2023-01-25T07:14:31;60.10;;;28.00;;
47455;SDS011;33202;48.512;-2.780;2023-01-25T07:16:57;59.80;;;29.27;;
47455;SDS011;33202;48.512;-2.780;2023-01-25T07:19:24;60.60;;;30.23;;
47455;SDS011;33202;48.512;-2.780;2023-01-25T07:21:50;62.80;;;30.60;;
47455;SDS011;33202;48.512;-2.780;2023-01-25T07:24:16;67.50;;;32.45;;
47455;SDS011;33202;48.512;-2.780;2023-01-25T07:26:45;66.03;;;32.90;;
47455;SDS011;33202;48.512;-2.780;2023-01-25T07:29:15;63.63;;;32.17;;
47455;SDS011;33202;48.512;-2.780;2023-01-25T07:31:41;62.22;;;31.17;;
47455;SDS011;33202;48.512;-2.780;2023-01-25T07:34:07;65.65;;;33.78;;
47455;SDS011;33202;48.512;-2.780;2023-01-25T07:36:34;63.90;;;31.27;;
47455;SDS011;33202;48.512;-2.780;2023-01-25T07:39:01;61.40;;;30.35;;
47455;SDS011;33202;48.512;-2.780;2023-01-25T07:41:27;59.75;;;30.02;;
47455;SDS011;33202;48.512;-2.780;2023-01-25T07:43:53;62.22;;;32.25;;
47455;SDS011;33202;48.512;-2.780;2023-01-25T07:46:19;67.22;;;35.95;;
47455;SDS011;33202;48.512;-2.780;2023-01-25T07:48:49;70.00;;;37.70;;
47455;SDS011;33202;48.512;-2.780;2023-01-25T07:51:16;70.53;;;36.80;;
47455;SDS011;33202;48.512;-2.780;2023-01-25T07:53:54;63.28;;;34.05;;
47455;SDS011;33202;48.512;-2.780;2023-01-25T07:56:21;64.57;;;35.13;;
47455;SDS011;33202;48.512;-2.780;2023-01-25T08:01:15;68.60;;;34.53;;
47455;SDS011;33202;48.512;-2.780;2023-01-25T08:03:42;70.28;;;36.55;;
47455;SDS011;33202;48.512;-2.780;2023-01-25T08:06:08;72.03;;;36.03;;
47455;SDS011;33202;48.512;-2.780;2023-01-25T08:08:37;70.07;;;36.67;;
47455;SDS011;33202;48.512;-2.780;2023-01-25T08:11:08;69.82;;;36.72;;
47455;SDS011;33202;48.512;-2.780;2023-01-25T08:13:34;72.30;;;39.95;;
47455;SDS011;33202;48.512;-2.780;2023-01-25T08:16:00;70.47;;;37.47;;
47455;SDS011;33202;48.512;-2.780;2023-01-25T08:18:26;69.00;;;36.97;;
47455;SDS011;33202;48.512;-2.780;2023-01-25T08:20:52;63.83;;;33.97;;
47455;SDS011;33202;48.512;-2.780;2023-01-25T08:23:18;66.20;;;34.20;;
47455;SDS011;33202;48.512;-2.780;2023-01-25T08:25:44;66.03;;;35.05;;
47455;SDS011;33202;48.512;-2.780;2023-01-25T08:28:10;68.45;;;33.20;;
47455;SDS011;33202;48.512;-2.780;2023-01-25T08:30:36;66.30;;;35.40;;
47455;SDS011;33202;48.512;-2.780;2023-01-25T08:33:02;66.28;;;34.65;;
47455;SDS011;33202;48.512;-2.780;2023-01-25T08:35:28;68.18;;;34.97;;
47455;SDS011;33202;48.512;-2.780;2023-01-25T08:37:54;63.50;;;34.20;;
47455;SDS011;33202;48.512;-2.780;2023-01-25T08:40:20;71.13;;;36.75;;
47455;SDS011;33202;48.512;-2.780;2023-01-25T08:42:46;71.78;;;37.10;;
47455;SDS011;33202;48.512;-2.780;2023-01-25T08:45:13;46.13;;;25.52;;
47455;SDS011;33202;48.512;-2.780;2023-01-25T08:47:39;37.50;;;21.38;;
47455;SDS011;33202;48.512;-2.780;2023-01-25T08:50:05;29.25;;;17.38;;
47455;SDS011;33202;48.512;-2.780;2023-01-25T08:52:31;30.25;;;16.80;;
47455;SDS011;33202;48.512;-2.780;2023-01-25T08:54:57;28.05;;;16.70;;
47455;SDS011;33202;48.512;-2.780;2023-01-25T08:57:23;25.13;;;15.27;;
47455;SDS011;33202;48.512;-2.780;2023-01-25T08:59:49;27.05;;;16.45;;
47455;SDS011;33202;48.512;-2.780;2023-01-25T09:02:15;27.67;;;17.02;;
47455;SDS011;33202;48.512;-2.780;2023-01-25T09:07:09;26.48;;;16.15;;
47455;SDS011;33202;48.512;-2.780;2023-01-25T09:09:35;26.55;;;16.92;;
47455;SDS011;33202;48.512;-2.780;2023-01-25T09:12:01;27.55;;;17.15;;
47455;SDS011;33202;48.512;-2.780;2023-01-25T09:14:27;23.83;;;14.85;;
47455;SDS011;33202;48.512;-2.780;2023-01-25T09:16:53;24.70;;;15.20;;
47455;SDS011;33202;48.512;-2.780;2023-01-25T09:19:19;25.95;;;15.88;;
47455;SDS011;33202;48.512;-2.780;2023-01-25T09:21:45;21.02;;;14.40;;
47455;SDS011;33202;48.512;-2.780;2023-01-25T09:24:12;20.52;;;13.73;;
47455;SDS011;33202;48.512;-2.780;2023-01-25T09:26:39;22.98;;;15.50;;
47455;SDS011;33202;48.512;-2.780;2023-01-25T09:29:06;25.45;;;16.08;;
47455;SDS011;33202;48.512;-2.780;2023-01-25T09:31:32;24.07;;;14.90;;
47455;SDS011;33202;48.512;-2.780;2023-01-25T09:33:59;23.85;;;15.50;;
47455;SDS011;33202;48.512;-2.780;2023-01-25T09:36:25;23.17;;;14.73;;
47455;SDS011;33202;48.512;-2.780;2023-01-25T09:38:51;26.08;;;15.63;;
47455;SDS011;33202;48.512;-2.780;2023-01-25T09:46:43;23.30;;;14.43;;
47455;SDS011;33202;48.512;-2.780;2023-01-25T09:54:42;22.30;;;14.93;;
47455;SDS011;33202;48.512;-2.780;2023-01-25T09:57:51;21.60;;;14.75;;
47455;SDS011;33202;48.512;-2.780;2023-01-25T09:59:59;23.00;;;14.27;;
47455;SDS011;33202;48.512;-2.780;2023-01-25T10:04:52;23.10;;;15.18;;
47455;SDS011;33202;48.512;-2.780;2023-01-25T10:07:23;23.45;;;15.27;;
47455;SDS011;33202;48.512;-2.780;2023-01-25T10:09:56;22.80;;;14.68;;
47455;SDS011;33202;48.512;-2.780;2023-01-25T10:12:23;18.63;;;13.35;;
47455;SDS011;33202;48.512;-2.780;2023-01-25T10:14:50;21.92;;;14.35;;
47455;SDS011;33202;48.512;-2.780;2023-01-25T10:17:19;22.00;;;13.85;;
47455;SDS011;33202;48.512;-2.780;2023-01-25T10:19:53;21.73;;;13.90;;
47455;SDS011;33202;48.512;-2.780;2023-01-25T10:22:22;20.83;;;14.05;;
47455;SDS011;33202;48.512;-2.780;2023-01-25T10:30:27;20.02;;;13.30;;
47455;SDS011;33202;48.512;-2.780;2023-01-25T10:32:55;21.83;;;13.65;;
47455;SDS011;33202;48.512;-2.780;2023-01-25T10:35:22;22.23;;;14.32;;
47455;SDS011;33202;48.512;-2.780;2023-01-25T10:37:50;20.27;;;13.85;;
47455;SDS011;33202;48.512;-2.780;2023-01-25T10:40:18;18.75;;;13.05;;
47455;SDS011;33202;48.512;-2.780;2023-01-25T10:42:47;21.67;;;13.98;;
47455;SDS011;33202;48.512;-2.780;2023-01-25T10:45:15;20.17;;;13.32;;
47455;SDS011;33202;48.512;-2.780;2023-01-25T10:47:46;20.75;;;14.20;;
47455;SDS011;33202;48.512;-2.780;2023-01-25T10:52:57;17.98;;;11.77;;
47455;SDS011;33202;48.512;-2.780;2023-01-25T10:55:23;17.08;;;12.63;;
47455;SDS011;33202;48.512;-2.780;2023-01-25T10:57:54;17.67;;;11.93;;
47455;SDS011;33202;48.512;-2.780;2023-01-25T11:00:26;17.20;;;11.70;;
47455;SDS011;33202;48.512;-2.780;2023-01-25T11:02:53;16.60;;;11.20;;
47455;SDS011;33202;48.512;-2.780;2023-01-25T11:05:24;16.57;;;10.80;;
47455;SDS011;33202;48.512;-2.780;2023-01-25T11:07:50;16.63;;;10.68;;
47455;SDS011;33202;48.512;-2.780;2023-01-25T11:18:29;12.70;;;9.40;;
47455;SDS011;33202;48.512;-2.780;2023-01-25T11:21:13;15.15;;;10.18;;
47455;SDS011;33202;48.512;-2.780;2023-01-25T11:24:14;12.85;;;8.75;;
47455;SDS011;33202;48.512;-2.780;2023-01-25T11:26:37;12.65;;;9.18;;
47455;SDS011;33202;48.512;-2.780;2023-01-25T11:29:14;12.35;;;9.35;;
47455;SDS011;33202;48.512;-2.780;2023-01-25T11:31:42;13.57;;;9.30;;
47455;SDS011;33202;48.512;-2.780;2023-01-25T11:34:11;15.75;;;9.80;;
47455;SDS011;33202;48.512;-2.780;2023-01-25T11:39:12;13.68;;;8.90;;
47455;SDS011;33202;48.512;-2.780;2023-01-25T11:49:23;12.45;;;7.68;;
47455;SDS011;33202;48.512;-2.780;2023-01-25T11:51:54;10.88;;;7.97;;
47455;SDS011;33202;48.512;-2.780;2023-01-25T12:00:26;11.27;;;8.30;;
47455;SDS011;33202;48.512;-2.780;2023-01-25T12:02:36;12.70;;;9.48;;
47455;SDS011;33202;48.512;-2.780;2023-01-25T12:05:22;13.20;;;9.05;;
47455;SDS011;33202;48.512;-2.780;2023-01-25T12:07:57;13.57;;;8.65;;
47455;SDS011;33202;48.512;-2.780;2023-01-25T12:13:23;12.73;;;8.43;;
47455;SDS011;33202;48.512;-2.780;2023-01-25T12:21:09;11.82;;;8.85;;
47455;SDS011;33202;48.512;-2.780;2023-01-25T12:23:51;12.00;;;8.45;;
47455;SDS011;33202;48.512;-2.780;2023-01-25T12:29:02;13.73;;;9.48;;
47455;SDS011;33202;48.512;-2.780;2023-01-25T12:31:40;13.02;;;8.93;;
47455;SDS011;33202;48.512;-2.780;2023-01-25T12:34:08;15.88;;;9.77;;
47455;SDS011;33202;48.512;-2.780;2023-01-25T12:39:07;13.52;;;8.02;;
47455;SDS011;33202;48.512;-2.780;2023-01-25T12:46:58;9.77;;;6.93;;
47455;SDS011;33202;48.512;-2.780;2023-01-25T12:49:28;12.90;;;8.18;;
47455;SDS011;33202;48.512;-2.780;2023-01-25T12:51:56;16.08;;;11.60;;
47455;SDS011;33202;48.512;-2.780;2023-01-25T12:54:27;16.67;;;11.43;;
47455;SDS011;33202;48.512;-2.780;2023-01-25T12:57:00;53.53;;;23.52;;
47455;SDS011;33202;48.512;-2.780;2023-01-25T13:01:56;18.38;;;15.00;;
47455;SDS011;33202;48.512;-2.780;2023-01-25T13:07:06;15.07;;;9.43;;
47455;SDS011;33202;48.512;-2.780;2023-01-25T13:12:19;10.70;;;6.80;;
47455;SDS011;33202;48.512;-2.780;2023-01-25T13:14:45;8.18;;;6.82;;
47455;SDS011;33202;48.512;-2.780;2023-01-25T13:19:46;12.02;;;8.13;;
47455;SDS011;33202;48.512;-2.780;2023-01-25T13:22:13;11.65;;;8.85;;
47455;SDS011;33202;48.512;-2.780;2023-01-25T13:27:22;10.60;;;7.00;;
47455;SDS011;33202;48.512;-2.780;2023-01-25T13:29:59;10.25;;;7.22;;
47455;SDS011;33202;48.512;-2.780;2023-01-25T13:34:58;9.13;;;6.45;;
47455;SDS011;33202;48.512;-2.780;2023-01-25T13:37:28;7.28;;;5.65;;
47455;SDS011;33202;48.512;-2.780;2023-01-25T13:44:53;11.32;;;6.88;;
47455;SDS011;33202;48.512;-2.780;2023-01-25T13:47:28;8.50;;;6.60;;
47455;SDS011;33202;48.512;-2.780;2023-01-25T13:52:21;14.70;;;8.32;;
47455;SDS011;33202;48.512;-2.780;2023-01-25T13:54:48;20.02;;;14.98;;
47455;SDS011;33202;48.512;-2.780;2023-01-25T13:57:20;15.55;;;12.18;;
47455;SDS011;33202;48.512;-2.780;2023-01-25T13:59:46;17.73;;;11.88;;
47455;SDS011;33202;48.512;-2.780;2023-01-25T14:02:15;13.15;;;11.30;;
47455;SDS011;33202;48.512;-2.780;2023-01-25T14:04:44;14.23;;;10.95;;
47455;SDS011;33202;48.512;-2.780;2023-01-25T14:07:13;10.38;;;8.15;;
47455;SDS011;33202;48.512;-2.780;2023-01-25T14:09:40;12.30;;;10.70;;
47455;SDS011;33202;48.512;-2.780;2023-01-25T14:12:07;12.53;;;8.80;;
47455;SDS011;33202;48.512;-2.780;2023-01-25T14:14:35;12.02;;;9.75;;
47455;SDS011;33202;48.512;-2.780;2023-01-25T14:19:40;13.40;;;9.82;;
47455;SDS011;33202;48.512;-2.780;2023-01-25T14:24:43;12.18;;;9.32;;
47455;SDS011;33202;48.512;-2.780;2023-01-25T14:27:13;12.70;;;10.23;;
47455;SDS011;33202;48.512;-2.780;2023-01-25T14:29:39;12.02;;;9.18;;
47455;SDS011;33202;48.512;-2.780;2023-01-25T14:32:06;15.88;;;10.32;;
47455;SDS011;33202;48.512;-2.780;2023-01-25T14:34:32;15.13;;;9.82;;
47455;SDS011;33202;48.512;-2.780;2023-01-25T14:37:05;13.73;;;9.98;;
47455;SDS011;33202;48.512;-2.780;2023-01-25T14:39:31;13.73;;;10.05;;
47455;SDS011;33202;48.512;-2.780;2023-01-25T14:41:58;17.33;;;10.73;;
47455;SDS011;33202;48.512;-2.780;2023-01-25T14:44:24;17.85;;;10.98;;
47455;SDS011;33202;48.512;-2.780;2023-01-25T14:47:18;18.35;;;11.07;;
47455;SDS011;33202;48.512;-2.780;2023-01-25T14:49:36;20.20;;;13.48;;
47455;SDS011;33202;48.512;-2.780;2023-01-25T14:52:04;17.00;;;12.70;;
47455;SDS011;33202;48.512;-2.780;2023-01-25T14:54:31;15.38;;;11.00;;
47455;SDS011;33202;48.512;-2.780;2023-01-25T14:57:02;17.40;;;11.73;;
47455;SDS011;33202;48.512;-2.780;2023-01-25T15:01:56;22.88;;;14.75;;
47455;SDS011;33202;48.512;-2.780;2023-01-25T15:06:52;35.20;;;23.35;;
47455;SDS011;33202;48.512;-2.780;2023-01-25T15:09:38;29.23;;;20.17;;
47455;SDS011;33202;48.512;-2.780;2023-01-25T15:12:26;23.13;;;15.77;;
47455;SDS011;33202;48.512;-2.780;2023-01-25T15:14:52;25.88;;;16.42;;
47455;SDS011;33202;48.512;-2.780;2023-01-25T15:19:50;22.92;;;15.23;;
47455;SDS011;33202;48.512;-2.780;2023-01-25T15:22:16;23.13;;;15.95;;
47455;SDS011;33202;48.512;-2.780;2023-01-25T15:24:42;26.05;;;18.23;;
47455;SDS011;33202;48.512;-2.780;2023-01-25T15:27:08;27.13;;;17.52;;
47455;SDS011;33202;48.512;-2.780;2023-01-25T15:29:35;23.70;;;16.50;;
47455;SDS011;33202;48.512;-2.780;2023-01-25T15:32:02;25.70;;;16.33;;
47455;SDS011;33202;48.512;-2.780;2023-01-25T15:34:28;24.00;;;16.25;;
47455;SDS011;33202;48.512;-2.780;2023-01-25T15:36:57;20.95;;;13.48;;
47455;SDS011;33202;48.512;-2.780;2023-01-25T15:39:23;20.05;;;12.93;;
47455;SDS011;33202;48.512;-2.780;2023-01-25T15:41:49;20.80;;;13.45;;
47455;SDS011;33202;48.512;-2.780;2023-01-25T15:44:15;18.60;;;12.45;;
47455;SDS011;33202;48.512;-2.780;2023-01-25T15:46:44;17.75;;;12.45;;
47455;SDS011;33202;48.512;-2.780;2023-01-25T15:49:13;20.58;;;13.02;;
47455;SDS011;33202;48.512;-2.780;2023-01-25T15:51:41;18.83;;;12.63;;
47455;SDS011;33202;48.512;-2.780;2023-01-25T15:54:07;25.98;;;15.88;;
47455;SDS011;33202;48.512;-2.780;2023-01-25T15:56:34;22.73;;;14.68;;
47455;SDS011;33202;48.512;-2.780;2023-01-25T15:59:04;25.92;;;17.17;;
47455;SDS011;33202;48.512;-2.780;2023-01-25T16:01:30;25.77;;;18.83;;
47455;SDS011;33202;48.512;-2.780;2023-01-25T16:03:57;25.58;;;17.92;;
47455;SDS011;33202;48.512;-2.780;2023-01-25T16:06:45;29.05;;;18.05;;
47455;SDS011;33202;48.512;-2.780;2023-01-25T16:09:23;24.85;;;16.20;;
47455;SDS011;33202;48.512;-2.780;2023-01-25T16:11:50;20.98;;;14.63;;
47455;SDS011;33202;48.512;-2.780;2023-01-25T16:14:16;23.45;;;15.02;;